createdAt,value
2017-11-22T00:01:17.392Z,4.33
2017-11-22T00:03:45.454Z,5.07
2017-11-22T00:06:14.275Z,5.20
2017-11-22T00:08:43.275Z,5.20
2017-11-22T00:11:12.709Z,5.83
2017-11-22T00:13:40.790Z,5.50
2017-11-22T00:16:09.119Z,4.33
2017-11-22T00:18:37.173Z,4.67
2017-11-22T00:21:05.934Z,5.17
2017-11-22T00:23:34.831Z,4.40
2017-11-22T00:26:03.519Z,4.43
2017-11-22T00:28:31.581Z,3.83
2017-11-22T00:30:59.773Z,4.87
2017-11-22T00:33:27.859Z,4.37
2017-11-22T00:35:56.529Z,4.87
2017-11-22T00:38:25.081Z,4.33
2017-11-22T00:40:53.877Z,4.33
2017-11-22T00:43:22.487Z,4.17
2017-11-22T00:45:50.672Z,4.47
2017-11-22T00:48:18.753Z,4.33
2017-11-22T00:50:46.810Z,4.37
2017-11-22T00:53:15.016Z,5.13
2017-11-22T00:55:43.468Z,4.00
2017-11-22T00:58:12.133Z,4.53
2017-11-22T01:00:40.333Z,4.27
2017-11-22T01:03:08.398Z,4.40
2017-11-22T01:05:36.474Z,4.80
2017-11-22T01:08:05.187Z,4.90
2017-11-22T01:10:33.951Z,4.03
2017-11-22T01:13:02.018Z,4.17
2017-11-22T01:15:30.204Z,4.97
2017-11-22T01:17:58.415Z,4.00
2017-11-22T01:20:26.484Z,5.10
2017-11-22T01:22:55.033Z,5.10
2017-11-22T01:25:23.607Z,4.90
2017-11-22T01:27:52.297Z,4.40
2017-11-22T01:30:21.299Z,4.30
2017-11-22T01:32:49.384Z,4.87
2017-11-22T01:35:17.506Z,5.20
2017-11-22T01:37:47.033Z,4.43
2017-11-22T01:40:15.798Z,4.70
2017-11-22T01:42:45.240Z,4.93
2017-11-22T01:45:14.226Z,4.60
2017-11-22T01:47:42.417Z,4.70
2017-11-22T01:50:10.530Z,5.00
2017-11-22T01:52:38.868Z,4.30
2017-11-22T01:55:07.392Z,4.77
2017-11-22T01:57:35.457Z,4.60
2017-11-22T02:00:04.287Z,4.57
2017-11-22T02:02:33.108Z,5.20
2017-11-22T02:05:01.192Z,4.77
2017-11-22T02:07:29.522Z,4.97
2017-11-22T02:09:58.318Z,5.10
2017-11-22T02:12:27.640Z,4.80
2017-11-22T02:14:56.543Z,5.20
2017-11-22T02:17:24.620Z,5.20
2017-11-22T02:19:52.845Z,4.50
2017-11-22T02:22:22.395Z,5.33
2017-11-22T02:24:50.528Z,8.20
2017-11-22T02:27:19.376Z,5.40
2017-11-22T02:29:48.148Z,5.33
2017-11-22T02:32:16.353Z,5.60
2017-11-22T02:34:44.425Z,5.37
2017-11-22T02:37:12.718Z,6.97
2017-11-22T02:39:40.857Z,5.67
2017-11-22T02:42:08.965Z,6.07
2017-11-22T02:44:37.198Z,6.70
2017-11-22T02:47:06.311Z,6.93
2017-11-22T02:49:34.899Z,5.70
2017-11-22T02:52:03.627Z,6.40
2017-11-22T02:54:32.468Z,5.67
2017-11-22T02:57:00.654Z,7.70
2017-11-22T02:59:28.859Z,8.20
2017-11-22T03:01:57.733Z,6.30
2017-11-22T03:04:25.832Z,5.60
2017-11-22T03:06:54.027Z,6.90
2017-11-22T03:09:22.880Z,6.40
2017-11-22T03:11:50.941Z,7.43
2017-11-22T03:14:19.539Z,5.80
2017-11-22T03:16:48.102Z,5.53
2017-11-22T03:19:16.180Z,5.50
2017-11-22T03:21:44.524Z,6.67
2017-11-22T03:24:13.340Z,5.50
2017-11-22T03:26:41.869Z,5.83
2017-11-22T03:29:11.586Z,6.00
2017-11-22T03:31:40.397Z,6.17
2017-11-22T03:34:08.829Z,6.70
2017-11-22T03:36:37.299Z,6.40
2017-11-22T03:39:06.126Z,5.57
2017-11-22T03:41:35.473Z,6.10
2017-11-22T03:44:04.264Z,4.90
2017-11-22T03:46:32.358Z,5.57
2017-11-22T03:49:01.031Z,5.10
2017-11-22T03:51:35.047Z,6.57
2017-11-22T03:54:03.183Z,5.77
2017-11-22T03:56:32.619Z,5.50
2017-11-22T03:59:01.567Z,5.93
2017-11-22T04:01:31.003Z,6.20
2017-11-22T04:03:59.810Z,6.43
2017-11-22T04:06:28.008Z,6.00
2017-11-22T04:08:56.091Z,6.50
2017-11-22T04:11:24.858Z,6.10
2017-11-22T04:13:53.506Z,6.13
2017-11-22T04:16:22.108Z,7.30
2017-11-22T04:18:50.813Z,6.53
2017-11-22T04:21:19.025Z,6.23
2017-11-22T04:23:47.261Z,7.40
2017-11-22T04:26:15.849Z,7.33
2017-11-22T04:28:44.725Z,8.70
2017-11-22T04:31:12.793Z,9.00
2017-11-22T04:33:41.495Z,7.57
2017-11-22T04:36:09.695Z,7.30
2017-11-22T04:38:37.785Z,8.60
2017-11-22T04:41:05.864Z,7.03
2017-11-22T04:43:34.529Z,10.13
2017-11-22T04:46:03.174Z,7.83
2017-11-22T04:48:31.980Z,7.97
2017-11-22T04:51:00.202Z,8.20
2017-11-22T04:53:28.302Z,8.17
2017-11-22T04:55:57.631Z,9.13
2017-11-22T04:58:26.628Z,7.87
2017-11-22T05:00:55.229Z,8.37
2017-11-22T05:03:24.614Z,8.07
2017-11-22T05:05:52.848Z,8.40
2017-11-22T05:08:21.691Z,10.27
2017-11-22T05:10:49.898Z,9.00
2017-11-22T05:13:18.760Z,10.83
2017-11-22T05:15:47.643Z,10.07
2017-11-22T05:18:16.218Z,10.47
2017-11-22T05:20:44.406Z,9.80
2017-11-22T05:23:12.503Z,9.50
2017-11-22T05:25:40.723Z,10.40
2017-11-22T05:28:08.967Z,10.30
2017-11-22T05:33:11.852Z,9.87
2017-11-22T05:35:40.036Z,10.27
2017-11-22T05:38:08.138Z,10.67
2017-11-22T05:40:37.100Z,13.20
2017-11-22T05:43:05.194Z,14.40
2017-11-22T05:45:33.313Z,12.27
2017-11-22T05:48:01.543Z,14.00
2017-11-22T05:50:29.665Z,16.33
2017-11-22T05:52:57.814Z,13.83
2017-11-22T05:55:26.861Z,15.20
2017-11-22T05:57:54.966Z,21.67
2017-11-22T06:00:23.268Z,19.77
2017-11-22T06:02:52.512Z,19.90
2017-11-22T06:05:21.114Z,23.90
2017-11-22T06:07:55.422Z,28.03
2017-11-22T06:10:25.679Z,24.97
2017-11-22T06:12:54.545Z,29.27
2017-11-22T06:15:22.743Z,28.27
2017-11-22T06:17:52.291Z,23.07
2017-11-22T06:20:21.194Z,26.23
2017-11-22T06:22:49.463Z,25.07
2017-11-22T06:25:17.559Z,31.23
2017-11-22T06:27:45.780Z,28.00
2017-11-22T06:30:20.461Z,27.43
2017-11-22T06:32:48.951Z,27.57
2017-11-22T06:35:18.551Z,29.60
2017-11-22T06:37:46.790Z,31.40
2017-11-22T06:40:14.902Z,34.77
2017-11-22T06:42:43.032Z,34.90
2017-11-22T06:45:12.780Z,32.90
2017-11-22T06:47:41.480Z,33.40
2017-11-22T06:50:09.984Z,33.57
2017-11-22T06:52:38.927Z,31.30
2017-11-22T06:55:07.028Z,27.03
2017-11-22T06:57:35.125Z,27.30
2017-11-22T07:00:04.185Z,22.13
2017-11-22T07:02:38.724Z,23.20
2017-11-22T07:05:07.603Z,23.37
2017-11-22T07:07:36.297Z,21.30
2017-11-22T07:10:04.410Z,22.10
2017-11-22T07:12:33.379Z,20.37
2017-11-22T07:15:02.453Z,16.63
2017-11-22T07:17:30.530Z,19.97
2017-11-22T07:19:58.804Z,18.13
2017-11-22T07:22:27.092Z,15.73
2017-11-22T07:24:55.372Z,18.33
2017-11-22T07:27:24.368Z,19.57
2017-11-22T07:29:52.598Z,14.47
2017-11-22T07:32:21.344Z,13.80
2017-11-22T07:34:50.912Z,12.67
2017-11-22T07:37:25.061Z,13.13
2017-11-22T07:39:53.165Z,14.50
2017-11-22T07:42:22.002Z,14.17
2017-11-22T07:44:50.103Z,13.90
2017-11-22T07:47:20.222Z,13.53
2017-11-22T07:49:48.320Z,12.40
2017-11-22T07:52:22.217Z,11.40
2017-11-22T07:54:50.304Z,11.17
2017-11-22T07:57:24.965Z,11.57
2017-11-22T07:59:53.047Z,12.00
2017-11-22T08:02:21.131Z,12.13
2017-11-22T08:04:49.322Z,13.23
2017-11-22T08:07:17.408Z,11.00
2017-11-22T08:09:45.503Z,9.20
2017-11-22T08:12:14.452Z,9.83
2017-11-22T08:14:42.548Z,9.53
2017-11-22T08:17:10.647Z,9.97
2017-11-22T08:19:40.114Z,8.20
2017-11-22T08:22:08.183Z,9.73
2017-11-22T08:24:36.281Z,7.80
2017-11-22T08:27:04.490Z,8.90
2017-11-22T08:29:33.327Z,8.43
2017-11-22T08:32:01.704Z,8.23
2017-11-22T08:34:30.083Z,11.00
2017-11-22T08:36:58.362Z,8.67
2017-11-22T08:39:26.629Z,7.07
2017-11-22T08:41:54.850Z,7.30
2017-11-22T08:44:23.679Z,7.93
2017-11-22T08:46:51.773Z,7.50
2017-11-22T08:49:20.161Z,8.70
2017-11-22T08:51:48.438Z,8.27
2017-11-22T08:54:22.376Z,7.20
2017-11-22T08:56:56.460Z,7.70
2017-11-22T08:59:24.742Z,7.63
2017-11-22T09:01:53.530Z,9.33
2017-11-22T09:04:22.386Z,7.67
2017-11-22T09:06:53.927Z,6.90
2017-11-22T09:09:23.360Z,7.13
2017-11-22T09:11:54.658Z,5.70
2017-11-22T09:14:22.747Z,7.03
2017-11-22T09:16:51.698Z,7.63
2017-11-22T09:19:20.570Z,7.07
2017-11-22T09:21:49.430Z,6.10
2017-11-22T09:24:19.410Z,6.60
2017-11-22T09:26:48.098Z,6.57
2017-11-22T09:29:16.189Z,6.00
2017-11-22T09:31:50.616Z,6.43
2017-11-22T09:34:25.590Z,8.33
2017-11-22T09:36:54.184Z,6.57
2017-11-22T09:39:22.971Z,6.30
2017-11-22T09:41:51.055Z,6.73
2017-11-22T09:44:19.268Z,6.30
2017-11-22T09:46:47.333Z,6.40
2017-11-22T09:49:16.134Z,6.33
2017-11-22T09:51:44.796Z,6.00
2017-11-22T09:54:13.359Z,6.90
2017-11-22T09:56:41.936Z,5.77
2017-11-22T09:59:10.139Z,6.17
2017-11-22T10:01:38.227Z,6.70
2017-11-22T10:04:06.303Z,6.47
2017-11-22T10:06:35.092Z,7.00
2017-11-22T10:09:04.051Z,6.43
2017-11-22T10:11:32.116Z,5.83
2017-11-22T10:14:00.302Z,7.10
2017-11-22T10:16:28.384Z,6.30
2017-11-22T10:18:56.598Z,6.73
2017-11-22T10:21:28.797Z,6.53
2017-11-22T10:24:05.408Z,6.13
2017-11-22T10:26:34.484Z,5.77
2017-11-22T10:29:08.359Z,5.67
2017-11-22T10:31:47.171Z,6.23
2017-11-22T10:34:16.781Z,6.70
2017-11-22T10:36:46.318Z,7.23
2017-11-22T10:39:15.210Z,8.03
2017-11-22T10:41:43.912Z,6.90
2017-11-22T10:44:11.998Z,6.63
2017-11-22T10:46:40.199Z,6.60
2017-11-22T10:49:08.282Z,8.07
2017-11-22T10:51:36.375Z,8.97
2017-11-22T10:54:05.336Z,7.00
2017-11-22T10:56:33.438Z,8.27
2017-11-22T10:59:02.270Z,7.80
2017-11-22T11:01:30.475Z,7.63
2017-11-22T11:03:58.565Z,9.13
2017-11-22T11:06:27.424Z,8.43
2017-11-22T11:08:56.113Z,7.60
2017-11-22T11:11:24.256Z,7.70
2017-11-22T11:13:52.361Z,6.83
2017-11-22T11:16:21.236Z,7.77
2017-11-22T11:18:49.322Z,7.40
2017-11-22T11:21:17.424Z,9.30
2017-11-22T11:23:45.643Z,8.90
2017-11-22T11:26:13.747Z,7.70
2017-11-22T11:28:42.756Z,8.13
2017-11-22T11:31:10.998Z,8.80
2017-11-22T11:33:39.088Z,7.70
2017-11-22T11:36:19.553Z,7.40
2017-11-22T11:38:47.882Z,7.57
2017-11-22T11:41:16.812Z,8.03
2017-11-22T11:43:45.582Z,6.87
2017-11-22T11:46:14.405Z,7.50
2017-11-22T11:48:42.528Z,7.23
2017-11-22T11:51:11.512Z,7.90
2017-11-22T11:53:40.986Z,6.63
2017-11-22T11:56:09.584Z,7.27
2017-11-22T11:58:38.436Z,6.77
2017-11-22T12:01:07.438Z,7.80
2017-11-22T12:03:35.543Z,6.37
2017-11-22T12:06:04.421Z,6.10
2017-11-22T12:08:32.511Z,8.43
2017-11-22T12:11:16.025Z,6.40
2017-11-22T12:13:45.328Z,7.70
2017-11-22T12:16:14.114Z,6.73
2017-11-22T12:18:42.336Z,6.93
2017-11-22T12:21:14.118Z,7.53
2017-11-22T12:23:42.236Z,5.60
2017-11-22T12:26:10.327Z,7.57
2017-11-22T12:28:38.426Z,6.53
2017-11-22T12:31:07.249Z,6.80
2017-11-22T12:33:35.639Z,5.97
2017-11-22T12:36:03.714Z,6.20
2017-11-22T12:38:31.834Z,5.57
2017-11-22T12:41:00.783Z,7.40
2017-11-22T12:43:28.878Z,6.30
2017-11-22T12:45:56.968Z,6.10
2017-11-22T12:48:25.794Z,5.23
2017-11-22T12:50:53.898Z,5.73
2017-11-22T12:53:21.968Z,5.73
2017-11-22T12:55:50.082Z,6.30
2017-11-22T12:58:18.909Z,6.03
2017-11-22T13:00:47.039Z,6.47
2017-11-22T13:03:15.135Z,6.30
2017-11-22T13:05:43.971Z,6.47
2017-11-22T13:08:12.200Z,7.03
2017-11-22T13:10:45.882Z,5.77
2017-11-22T13:13:14.707Z,7.33
2017-11-22T13:15:42.832Z,5.77
2017-11-22T13:18:10.922Z,5.83
2017-11-22T13:20:39.018Z,6.20
2017-11-22T13:23:07.894Z,6.17
2017-11-22T13:25:36.761Z,5.87
2017-11-22T13:28:04.887Z,6.47
2017-11-22T13:30:33.042Z,7.47
2017-11-22T13:33:02.058Z,6.33
2017-11-22T13:35:30.387Z,6.97
2017-11-22T13:37:58.662Z,7.23
2017-11-22T13:40:27.087Z,6.47
2017-11-22T13:42:55.434Z,6.00
2017-11-22T13:45:24.486Z,6.53
2017-11-22T13:47:52.804Z,5.93
2017-11-22T13:50:20.907Z,6.60
2017-11-22T13:52:49.174Z,6.00
2017-11-22T13:55:18.607Z,6.87
2017-11-22T13:57:47.311Z,6.20
2017-11-22T14:00:16.332Z,6.50
2017-11-22T14:02:44.530Z,6.67
2017-11-22T14:05:12.720Z,6.80
2017-11-22T14:07:41.691Z,6.67
2017-11-22T14:10:10.554Z,6.60
2017-11-22T14:12:39.431Z,6.40
2017-11-22T14:15:08.080Z,7.50
2017-11-22T14:17:37.334Z,6.50
2017-11-22T14:20:05.430Z,6.47
2017-11-22T14:22:33.655Z,6.57
2017-11-22T14:25:02.016Z,6.40
2017-11-22T14:27:30.969Z,7.87
2017-11-22T14:29:59.942Z,6.80
2017-11-22T14:32:29.043Z,6.27
2017-11-22T14:34:58.032Z,6.60
2017-11-22T14:37:26.171Z,6.83
2017-11-22T14:39:55.217Z,5.83
2017-11-22T14:42:23.463Z,6.03
2017-11-22T14:44:52.186Z,5.77
2017-11-22T14:47:20.456Z,6.23
2017-11-22T14:49:48.601Z,5.60
2017-11-22T14:52:16.835Z,5.77
2017-11-22T14:54:45.086Z,6.17
2017-11-22T14:57:13.852Z,6.90
2017-11-22T14:59:42.526Z,6.87
2017-11-22T15:02:11.547Z,6.13
2017-11-22T15:04:39.817Z,6.50
2017-11-22T15:07:08.067Z,5.77
2017-11-22T15:09:37.263Z,6.20
2017-11-22T15:12:06.322Z,5.97
2017-11-22T15:14:35.177Z,6.13
2017-11-22T15:17:04.272Z,5.97
2017-11-22T15:19:32.417Z,5.87
2017-11-22T15:22:01.408Z,6.90
2017-11-22T15:24:30.502Z,6.40
2017-11-22T15:27:00.159Z,6.80
2017-11-22T15:29:28.611Z,8.30
2017-11-22T15:31:57.370Z,8.77
2017-11-22T15:34:25.545Z,6.47
2017-11-22T15:36:53.861Z,6.60
2017-11-22T15:39:22.058Z,7.93
2017-11-22T15:41:50.130Z,7.40
2017-11-22T15:44:18.712Z,6.33
2017-11-22T15:46:47.970Z,6.73
2017-11-22T15:49:16.790Z,7.50
2017-11-22T15:51:44.879Z,6.33
2017-11-22T15:54:13.106Z,6.07
2017-11-22T15:56:41.951Z,6.80
2017-11-22T15:59:10.125Z,6.60
2017-11-22T16:01:38.822Z,6.20
2017-11-22T16:04:07.631Z,6.10
2017-11-22T16:06:37.126Z,7.10
2017-11-22T16:09:05.596Z,5.67
2017-11-22T16:11:33.686Z,6.70
2017-11-22T16:14:02.243Z,7.20
2017-11-22T16:16:31.037Z,6.07
2017-11-22T16:18:59.609Z,6.27
2017-11-22T16:21:28.401Z,8.30
2017-11-22T16:23:56.601Z,7.10
2017-11-22T16:26:24.674Z,7.63
2017-11-22T16:28:52.759Z,7.20
2017-11-22T16:31:21.034Z,7.87
2017-11-22T16:33:49.311Z,7.73
2017-11-22T16:36:18.026Z,6.47
2017-11-22T16:38:46.977Z,7.27
2017-11-22T16:41:15.084Z,7.30
2017-11-22T16:43:43.165Z,7.00
2017-11-22T16:46:12.712Z,6.90
2017-11-22T16:48:41.759Z,6.90
2017-11-22T16:51:11.051Z,6.47
2017-11-22T16:53:39.290Z,8.30
2017-11-22T16:56:07.378Z,7.20
2017-11-22T16:58:36.056Z,6.67
2017-11-22T17:01:05.002Z,7.77
2017-11-22T17:03:34.236Z,7.37
2017-11-22T17:06:02.390Z,7.50
2017-11-22T17:08:31.325Z,8.40
2017-11-22T17:10:59.446Z,7.17
2017-11-22T17:13:28.286Z,6.97
2017-11-22T17:15:57.276Z,7.97
2017-11-22T17:18:25.378Z,8.53
2017-11-22T17:20:54.095Z,7.90
2017-11-22T17:23:23.704Z,9.93
2017-11-22T17:25:52.545Z,8.93
2017-11-22T17:28:20.666Z,9.77
2017-11-22T17:30:50.376Z,9.00
2017-11-22T17:33:19.722Z,8.37
2017-11-22T17:35:48.419Z,8.90
2017-11-22T17:38:17.104Z,8.47
2017-11-22T17:40:45.215Z,8.53
2017-11-22T17:43:13.363Z,7.43
2017-11-22T17:45:41.587Z,8.37
2017-11-22T17:48:11.032Z,8.33
2017-11-22T17:50:39.911Z,8.57
2017-11-22T17:53:08.713Z,7.70
2017-11-22T17:55:36.835Z,8.00
2017-11-22T17:58:05.735Z,7.77
2017-11-22T18:00:34.740Z,7.63
2017-11-22T18:03:04.194Z,8.40
2017-11-22T18:05:33.687Z,8.10
2017-11-22T18:08:02.391Z,7.90
2017-11-22T18:10:30.515Z,7.53
2017-11-22T18:12:59.369Z,8.33
2017-11-22T18:15:28.277Z,7.80
2017-11-22T18:17:56.365Z,7.80
2017-11-22T18:20:25.995Z,7.33
2017-11-22T18:22:54.663Z,7.77
2017-11-22T18:25:23.560Z,7.13
2017-11-22T18:27:52.384Z,8.70
2017-11-22T18:30:20.656Z,8.47
2017-11-22T18:32:49.250Z,7.73
2017-11-22T18:35:17.462Z,8.57
2017-11-22T18:37:45.674Z,8.57
2017-11-22T18:40:13.809Z,9.13
2017-11-22T18:42:41.931Z,9.50
2017-11-22T18:45:10.173Z,8.60
2017-11-22T18:47:39.075Z,7.83
2017-11-22T18:50:08.573Z,9.40
2017-11-22T18:52:38.309Z,10.00
2017-11-22T18:55:06.761Z,9.03
2017-11-22T18:57:34.867Z,10.23
2017-11-22T19:00:03.097Z,7.73
2017-11-22T19:02:31.467Z,9.80
2017-11-22T19:05:00.157Z,9.03
2017-11-22T19:07:29.021Z,9.20
2017-11-22T19:09:57.544Z,8.70
2017-11-22T19:12:25.609Z,8.70
2017-11-22T19:14:53.812Z,8.63
2017-11-22T19:17:22.652Z,8.20
2017-11-22T19:19:51.278Z,8.60
2017-11-22T19:22:20.834Z,8.30
2017-11-22T19:24:49.539Z,7.70
2017-11-22T19:27:17.660Z,7.83
2017-11-22T19:29:46.600Z,7.60
2017-11-22T19:32:14.714Z,8.20
2017-11-22T19:34:44.278Z,8.53
2017-11-22T19:37:12.473Z,6.97
2017-11-22T19:39:41.122Z,9.10
2017-11-22T19:42:09.212Z,7.07
2017-11-22T19:44:37.649Z,7.03
2017-11-22T19:47:06.978Z,7.77
2017-11-22T19:49:35.670Z,8.53
2017-11-22T19:52:04.576Z,9.20
2017-11-22T19:54:32.763Z,8.40
2017-11-22T19:57:00.853Z,8.00
2017-11-22T19:59:29.051Z,8.63
2017-11-22T20:01:57.868Z,7.67
2017-11-22T20:04:26.583Z,8.50
2017-11-22T20:07:07.056Z,8.67
2017-11-22T20:09:36.663Z,7.97
2017-11-22T20:12:05.168Z,8.40
2017-11-22T20:14:33.370Z,9.67
2017-11-22T20:17:02.192Z,8.30
2017-11-22T20:19:30.719Z,8.07
2017-11-22T20:21:59.447Z,9.17
2017-11-22T20:24:28.166Z,8.40
2017-11-22T20:26:56.240Z,8.50
2017-11-22T20:29:24.471Z,8.50
2017-11-22T20:31:53.300Z,7.70
2017-11-22T20:34:22.203Z,9.53
2017-11-22T20:36:50.949Z,8.90
2017-11-22T20:39:20.502Z,7.33
2017-11-22T20:41:49.295Z,7.33
2017-11-22T20:44:17.501Z,9.83
2017-11-22T20:46:46.340Z,8.37
2017-11-22T20:49:14.407Z,7.70
2017-11-22T20:51:43.129Z,8.90
2017-11-22T20:54:11.796Z,9.27
2017-11-22T20:56:40.687Z,8.70
2017-11-22T20:59:09.634Z,9.10
2017-11-22T21:01:38.469Z,8.57
2017-11-22T21:04:06.578Z,8.63
2017-11-22T21:06:35.332Z,8.27
2017-11-22T21:09:04.333Z,7.70
2017-11-22T21:11:33.062Z,8.20
2017-11-22T21:14:01.256Z,7.60
2017-11-22T21:16:30.096Z,8.00
2017-11-22T21:18:58.191Z,7.93
2017-11-22T21:21:26.920Z,8.20
2017-11-22T21:23:55.416Z,8.20
2017-11-22T21:26:24.172Z,7.90
2017-11-22T21:28:53.714Z,7.70
2017-11-22T21:31:21.806Z,8.17
2017-11-22T21:33:49.888Z,8.33
2017-11-22T21:36:18.760Z,7.63
2017-11-22T21:38:46.842Z,8.77
2017-11-22T21:41:15.417Z,8.67
2017-11-22T21:43:44.411Z,8.57
2017-11-22T21:46:12.466Z,9.07
2017-11-22T21:48:40.514Z,8.30
2017-11-22T21:51:10.157Z,7.90
2017-11-22T21:53:38.923Z,8.17
2017-11-22T21:56:08.258Z,7.43
2017-11-22T21:58:36.613Z,7.97
2017-11-22T22:01:05.225Z,7.93
2017-11-22T22:03:33.299Z,7.03
2017-11-22T22:06:01.509Z,8.40
2017-11-22T22:08:29.582Z,8.03
2017-11-22T22:10:58.016Z,8.03
2017-11-22T22:13:26.888Z,8.43
2017-11-22T22:15:56.324Z,9.33
2017-11-22T22:18:24.340Z,8.23
2017-11-22T22:20:52.404Z,8.90
2017-11-22T22:23:20.945Z,9.90
2017-11-22T22:25:49.688Z,9.67
2017-11-22T22:28:17.775Z,8.20
2017-11-22T22:30:47.033Z,7.60
2017-11-22T22:33:15.038Z,8.00
2017-11-22T22:35:43.852Z,8.77
2017-11-22T22:38:12.447Z,9.20
2017-11-22T22:40:41.069Z,7.80
2017-11-22T22:43:09.208Z,8.60
2017-11-22T22:45:37.773Z,10.00
2017-11-22T22:48:07.141Z,8.57
2017-11-22T22:50:35.317Z,7.83
2017-11-22T22:53:04.474Z,8.93
2017-11-22T22:55:32.984Z,9.07
2017-11-22T22:58:01.504Z,8.57
2017-11-22T23:00:31.081Z,8.53
2017-11-22T23:02:59.072Z,9.00
2017-11-22T23:05:27.217Z,9.60
2017-11-22T23:07:55.181Z,10.03
2017-11-22T23:10:23.161Z,9.60
2017-11-22T23:12:51.696Z,8.60
2017-11-22T23:15:21.429Z,8.77
2017-11-22T23:17:49.507Z,9.00
2017-11-22T23:20:17.737Z,8.13
2017-11-22T23:22:46.554Z,8.77
2017-11-22T23:25:15.060Z,9.40
2017-11-22T23:27:43.875Z,8.60
2017-11-22T23:30:12.540Z,10.67
2017-11-22T23:32:41.280Z,8.30
2017-11-22T23:35:10.201Z,9.10
2017-11-22T23:37:38.278Z,8.70
2017-11-22T23:40:06.985Z,8.97
2017-11-22T23:42:35.876Z,8.90
2017-11-22T23:45:04.560Z,8.60
2017-11-22T23:47:33.053Z,8.60
2017-11-22T23:50:02.066Z,8.73
2017-11-22T23:52:30.133Z,8.93
2017-11-22T23:54:58.699Z,9.73
2017-11-22T23:57:27.520Z,8.70
2017-11-22T23:59:56.150Z,8.83
